Terminal Aerodrome Forecast
Issued by NWS Cleveland, OH

Home | Current Version | Previous Version | Graphics & Text | Print | Product List | Glossary On
Versions: 1 2 3 4 5 6 7 8 9 10 11 12 13 14 15 16 17 18 19 20 21 22 23 24 25 26 27 28 29 30
000
FTUS41 KCLE 171400 AAB
TAFCLE
TAF AMD
KCLE 171453Z 1715/1818 20014G20KT P6SM SCT022
      TEMPO 1715/1718 BKN022
     FM171800 21015G25KT P6SM BKN035
     FM180000 24012KT P6SM BKN050
     FM180500 27015KT 6SM -SHRA BR SCT015 OVC025
     FM181000 29015G25KT 5SM -SHRA BR SCT009 OVC015=

USA.gov is the U.S. government's official web portal to all federal, state and local government web resources and services.